默认 日期 大小 文件数 浏览量 最新下载 xml
face of磁力链接相关资源由用户搜索指令自动获取,结果来源于网络,本站不存储任何资料,亦不承担任何责任,请于24小时内删除,搜索到1754个磁力,用时32ms。
    {"cover.jpg": 102140, "metadata.opf": 4645, "The Real Face of Atheism - Ravi Zacharias.epub": 548494, "The Real Face of Atheism - Ravi Zacharias.mobi": 420186}
创建时间: 2019-01-15 06:29:57 大小:1.03 MB 文件数量:4 热度:6 最近下载:2025-07-02 02:47:02
    {"The.Face.of.an.Angel.2014.HDRip.XviD.AC3.SBT.avi": 1451430796, "The.Face.of.an.Angel.2014.HDRip.XviD.AC3.SBT.srt": 118263}
创建时间: 2019-01-15 06:59:07 大小:1.35 GB 文件数量:2 热度:4 最近下载:2022-11-12 09:50:55
    {"Torrent downloaded from Demonoid.com.txt": 47, "McMillan & Wife 105 The Face of Murder.avi": 734965760}
创建时间: 2019-01-15 15:01:38 大小:700.92 MB 文件数量:2 热度:4 最近下载:2022-11-15 19:43:17
    {"cover.jpg": 342384, "01 - Epistle.mp3": 17118118, "04 - Last Words.mp3": 9187343, "02 - All Open Eyes.mp3": 38243865, "03 -The Face Of Life.mp3": 46987571}
创建时间: 2019-01-15 18:23:26 大小:106.7 MB 文件数量:5 热度:4 最近下载:2022-11-12 10:21:45
    {"Carol Castro Fucking Face of New Slave of 47 years of old.mp4": 90285601}
创建时间: 2019-01-15 19:14:12 大小:86.1 MB 文件数量:1 热度:9 最近下载:2025-07-31 19:30:08
    ... Eyes.mp3": 38243865, "03 -The Face Of Life.mp3": 46987571, "Wstyd dla ...
创建时间: 2019-01-15 21:52:01 大小:107.12 MB 文件数量:14 热度:4 最近下载:2022-11-15 20:32:07
    {"Cover.jpg": 1509811, "父と暮らせば, The Face Of Jizo, 2004.H264.AAC-TLF.mkv": 359419953, "父と暮らせば, The Face Of Jizo, 2004.H264.AAC-TLF.smi": 124998}
创建时间: 2019-01-16 00:40:51 大小:344.33 MB 文件数量:3 热度:6 最近下载:2022-11-15 20:39:19
    {"i.nfo": 4008, "cover_img.jpg": 16843, "HisCh The Real Face of Jesus.mkv": 675732045}
创建时间: 2019-01-16 02:50:04 大小:644.45 MB 文件数量:3 热度:4 最近下载:2025-09-15 15:06:10
    {"kinetic-element-epistle.mp3": 17118118, "kinetic-element-last-words.mp3": 9187343, "kinetic-element-all-open-eyes.mp3": 38243865, "kinetic-element-the-face-of-life.mp3": 46987571}
创建时间: 2019-01-16 10:21:13 大小:106.37 MB 文件数量:4 热度:4 最近下载:2022-11-15 19:36:01
    ... Utopia.mp3": 9690612, "01 The Face of Fear.mp3": 9719877, "06 Thirst ... ": 9754378, "05 Through the Ages of Atrocity.mp3": 12228701, "10 Mind ... of No Return (Re-Record).mp3": ...
创建时间: 2019-01-19 05:03:53 大小:106.69 MB 文件数量:12 热度:5 最近下载:2025-09-16 18:13:06
    {"Meeting the Enemy - The Human Face of the Great War.epub": 2721860}
创建时间: 2019-01-19 15:45:56 大小:2.6 MB 文件数量:1 热度:4 最近下载:2022-11-15 20:40:13
    {"cover.jpg": 6375, "metadata.opf": 2829, "The Face of Fear - Dean Koontz.mobi": 491982}
创建时间: 2019-01-19 22:20:45 大小:489.44 KB 文件数量:3 热度:5 最近下载:2025-09-16 18:13:10
    ... . The Heart Of The Sun.mp3": 17311744, "06. The Face Of The Unknown ...
创建时间: 2019-01-20 03:17:52 大小:146.05 MB 文件数量:10 热度:9 最近下载:2025-04-14 02:30:01
    ... , "Lone.Star.Law.S03E05.The.Face.of.Danger.HDTV.x264-CRiMSON.mkv ... , "lone.star.law.s03e05.the.face.of.danger.hdtv.x264-crimson.nfo ...
创建时间: 2019-01-20 04:36:32 大小:483.15 MB 文件数量:7 热度:7 最近下载:2025-03-19 23:54:04
    {"file_id.diz": 102, "distribution.nfo": 1369, "dean.koontz.the.face.of.fear.2008.retail.ebook-distribution.pdf": 6268928}
创建时间: 2019-01-22 01:39:59 大小:5.98 MB 文件数量:3 热度:10 最近下载:2025-09-21 18:54:02
    {"The.Face.of.Love.2013.1080p.BluRay.x264.anoXmous.mp4": 1834894769, "The.Face.of.Love.2013.1080p.BluRay.x264.anoXmous_eng.srt": 84187, "The.Face.of.Love.2013.1080p.BluRay.x264.anoXmous_swe.srt": 43653}
创建时间: 2019-01-23 12:22:18 大小:1.71 GB 文件数量:3 热度:3 最近下载:2022-11-12 12:38:52
    ... .1 Webisodes. The Face of the Enemy(s4e11_12).zip": ... , "Battlestar.Galactica.The.Face.Of.The.Enemy.webisodes.v3.720p ... 653759047, "Battlestar.Galactica.The.Face.Of.The.Enemy.webisodes.v3.720p ... , "Battlestar.Galactica.The.Face.Of.The.Enemy.webisodes.v3.720p ...
创建时间: 2019-01-24 17:19:23 大小:623.53 MB 文件数量:4 热度:5 最近下载:2022-11-12 10:52:58
    ... Brutality.mp3": 8642685, "08. Battle Of The North.mp3": 6766048, "09 ... Rostro De La Muerte (The Face Of Death).mp3": 8609271, "13. Cuando ...
创建时间: 2019-01-27 18:22:20 大小:116.48 MB 文件数量:14 热度:5 最近下载:2025-02-21 00:34:03
    ... ": 1310045, "The Face Of Death - 01.04.mp3": 1148294, "The Face Of Death - 01 ... .05.mp3": 1214750, "The Face Of Death - 01 ... .06.mp3": 1098766, "The Face Of Death - 01 ...
创建时间: 2019-01-28 05:11:39 大小:1.3 GB 文件数量:1288 热度:22 最近下载:2025-02-05 19:56:04
    {"CD.jpg": 1541602, "back.jpg": 992472, "info.txt": 14402, "cover.jpg": 761279, "folder.jpg": 28531, "booklet_1.jpg": 946813, "booklet_2.jpg": 1023539, "01 - Face Up.flac": 205009403, "02 - Face Down.flac": 223888836, "Sten Sandell Trio.jpg": 404682}
创建时间: 2019-01-28 11:57:21 大小:414.48 MB 文件数量:10 热度:7 最近下载:2025-06-30 11:07:01